createdAt,value
2022-12-31T00:00:04.752Z,99.99
2022-12-31T00:01:05.546Z,99.99
2022-12-31T00:02:05.126Z,99.99
2022-12-31T00:03:05.180Z,99.99
2022-12-31T00:04:05.213Z,99.99
2022-12-31T00:05:05.346Z,99.99
2022-12-31T00:06:05.480Z,99.99
2022-12-31T00:07:05.677Z,99.99
2022-12-31T00:08:05.710Z,99.99
2022-12-31T00:09:05.839Z,99.99
2022-12-31T00:10:06.001Z,99.99
2022-12-31T00:11:06.145Z,99.99
2022-12-31T00:12:06.366Z,99.99
2022-12-31T00:13:06.388Z,99.99
2022-12-31T00:14:06.577Z,99.99
2022-12-31T00:15:06.665Z,99.99
2022-12-31T00:16:11.791Z,99.99
2022-12-31T00:17:07.958Z,99.99
2022-12-31T00:18:07.051Z,99.99
2022-12-31T00:19:07.204Z,99.99
2022-12-31T00:20:07.316Z,99.99
2022-12-31T00:21:07.453Z,99.99
2022-12-31T00:22:07.629Z,99.99
2022-12-31T00:23:07.643Z,99.99
2022-12-31T00:24:07.755Z,99.99
2022-12-31T00:25:07.852Z,99.99
2022-12-31T00:26:08.031Z,99.99
2022-12-31T00:27:08.110Z,99.99
2022-12-31T00:28:08.250Z,99.99
2022-12-31T00:29:08.341Z,99.99
2022-12-31T00:30:08.474Z,99.99
2022-12-31T00:31:08.717Z,99.99
2022-12-31T00:32:08.811Z,99.99
2022-12-31T00:33:08.903Z,99.99
2022-12-31T00:34:09.057Z,99.99
2022-12-31T00:35:09.171Z,99.99
2022-12-31T00:36:09.310Z,99.99
2022-12-31T00:37:09.464Z,99.99
2022-12-31T00:38:09.612Z,99.99
2022-12-31T00:39:09.786Z,99.99
2022-12-31T00:40:09.877Z,99.99
2022-12-31T00:41:11.461Z,99.99
2022-12-31T00:42:10.172Z,99.99
2022-12-31T00:43:10.270Z,99.99
2022-12-31T00:44:10.411Z,99.99
2022-12-31T00:45:10.561Z,99.99
2022-12-31T00:46:10.766Z,99.99
2022-12-31T00:47:10.857Z,99.99
2022-12-31T00:48:10.969Z,99.99
2022-12-31T00:49:11.109Z,99.99
2022-12-31T00:50:11.253Z,99.99
2022-12-31T00:51:11.410Z,99.99
2022-12-31T00:52:11.550Z,99.99
2022-12-31T00:53:11.723Z,99.99
2022-12-31T00:54:11.915Z,99.99
2022-12-31T00:55:11.970Z,99.99
2022-12-31T00:56:12.129Z,99.99
2022-12-31T00:57:12.219Z,99.99
2022-12-31T00:58:12.389Z,99.99
2022-12-31T00:59:12.481Z,99.99
2022-12-31T01:00:12.583Z,99.99
2022-12-31T01:01:12.872Z,99.99
2022-12-31T01:02:13.046Z,99.99
2022-12-31T01:03:12.992Z,99.99
2022-12-31T01:04:13.812Z,99.99
2022-12-31T01:05:13.960Z,99.99
2022-12-31T01:06:13.293Z,99.99
2022-12-31T01:07:13.440Z,99.99
2022-12-31T01:08:13.528Z,99.99
2022-12-31T01:09:13.685Z,99.99
2022-12-31T01:10:13.838Z,99.99
2022-12-31T01:11:14.013Z,99.99
2022-12-31T01:12:14.151Z,99.99
2022-12-31T01:13:14.301Z,99.99
2022-12-31T01:14:14.430Z,99.99
2022-12-31T01:15:14.567Z,99.99
2022-12-31T01:16:14.753Z,99.99
2022-12-31T01:17:14.867Z,99.99
2022-12-31T01:18:14.988Z,99.99
2022-12-31T01:19:15.151Z,99.99
2022-12-31T01:20:15.287Z,99.99
2022-12-31T01:21:15.425Z,99.99
2022-12-31T01:22:15.585Z,99.99
2022-12-31T01:23:15.718Z,99.99
2022-12-31T01:24:15.879Z,99.99
2022-12-31T01:25:16.008Z,99.99
2022-12-31T01:26:16.158Z,99.99
2022-12-31T01:27:16.349Z,99.99
2022-12-31T01:28:16.408Z,99.99
2022-12-31T01:29:16.535Z,99.99
2022-12-31T01:30:16.666Z,99.99
2022-12-31T01:31:16.837Z,99.99
2022-12-31T01:32:16.908Z,99.99
2022-12-31T01:33:17.039Z,99.99
2022-12-31T01:34:17.898Z,99.99
2022-12-31T01:35:17.295Z,99.99
2022-12-31T01:36:21.855Z,99.99
2022-12-31T01:37:18.569Z,99.99
2022-12-31T01:38:17.693Z,99.99
2022-12-31T01:39:17.819Z,99.99
2022-12-31T01:40:17.975Z,99.99
2022-12-31T01:41:18.864Z,99.99
2022-12-31T01:42:18.226Z,99.99
2022-12-31T01:43:18.376Z,99.99
2022-12-31T01:44:18.474Z,99.99
2022-12-31T01:45:18.595Z,99.99
2022-12-31T01:46:18.756Z,99.99
2022-12-31T01:47:18.883Z,99.99
2022-12-31T01:48:19.017Z,99.99
2022-12-31T01:49:19.157Z,99.99
2022-12-31T01:50:19.317Z,99.99
2022-12-31T01:51:19.412Z,99.99
2022-12-31T01:52:19.559Z,99.99
2022-12-31T01:53:19.722Z,99.99
2022-12-31T01:54:19.875Z,99.99
2022-12-31T01:55:20.020Z,99.99
2022-12-31T01:56:20.084Z,99.99
2022-12-31T01:57:20.258Z,99.99
2022-12-31T01:58:20.318Z,99.99
2022-12-31T01:59:20.472Z,99.99
2022-12-31T02:00:20.596Z,99.99
2022-12-31T02:01:20.806Z,99.99
2022-12-31T02:02:20.995Z,99.99
2022-12-31T02:03:21.030Z,99.99
2022-12-31T02:04:21.109Z,99.99
2022-12-31T02:05:21.254Z,99.99
2022-12-31T02:06:21.410Z,99.99
2022-12-31T02:07:21.547Z,99.99
2022-12-31T02:08:21.716Z,99.99
2022-12-31T02:09:22.764Z,99.99
2022-12-31T02:10:21.962Z,99.99
2022-12-31T02:11:22.110Z,99.99
2022-12-31T02:12:22.202Z,99.99
2022-12-31T02:13:22.351Z,99.99
2022-12-31T02:14:22.503Z,99.99
2022-12-31T02:15:22.652Z,99.99
2022-12-31T02:16:22.800Z,99.99
2022-12-31T02:17:22.908Z,99.99
2022-12-31T02:18:22.982Z,99.99
2022-12-31T02:19:23.131Z,99.99
2022-12-31T02:20:23.245Z,99.99
2022-12-31T02:21:23.362Z,99.99
2022-12-31T02:22:23.490Z,99.99
2022-12-31T02:23:23.658Z,99.99
2022-12-31T02:24:23.774Z,99.99
2022-12-31T02:25:23.924Z,99.99
2022-12-31T02:26:24.069Z,99.99
2022-12-31T02:27:24.208Z,99.99
2022-12-31T02:28:24.352Z,99.99
2022-12-31T02:29:24.579Z,99.99
2022-12-31T02:30:24.670Z,99.99
2022-12-31T02:31:24.838Z,99.99
2022-12-31T02:32:24.913Z,99.99
2022-12-31T02:33:25.988Z,99.99
2022-12-31T02:34:25.306Z,99.99
2022-12-31T02:35:25.335Z,99.99
2022-12-31T02:36:25.467Z,99.99
2022-12-31T02:37:25.598Z,99.99
2022-12-31T02:38:25.743Z,99.99
2022-12-31T02:39:25.930Z,99.99
2022-12-31T02:40:26.014Z,99.99
2022-12-31T02:41:26.106Z,99.99
2022-12-31T02:42:26.245Z,99.99
2022-12-31T02:43:26.385Z,99.99
2022-12-31T02:44:26.526Z,99.99
2022-12-31T02:45:26.673Z,99.99
2022-12-31T02:46:26.835Z,99.99
2022-12-31T02:47:26.895Z,99.99
2022-12-31T02:48:27.051Z,99.99
2022-12-31T02:49:27.155Z,99.99
2022-12-31T02:50:27.301Z,99.99
2022-12-31T02:51:27.412Z,99.99
2022-12-31T02:52:27.543Z,99.99
2022-12-31T02:53:27.681Z,99.99
2022-12-31T02:54:27.801Z,99.99
2022-12-31T02:55:27.945Z,99.99
2022-12-31T02:56:28.051Z,99.99
2022-12-31T02:57:28.214Z,99.99
2022-12-31T02:58:28.362Z,99.99
2022-12-31T02:59:28.455Z,99.99
2022-12-31T03:00:28.685Z,99.99
2022-12-31T03:01:28.887Z,99.99
2022-12-31T03:02:28.930Z,99.99
2022-12-31T03:03:28.995Z,99.99
2022-12-31T03:04:29.097Z,99.99
2022-12-31T03:05:29.253Z,99.99
2022-12-31T03:06:29.392Z,99.99
2022-12-31T03:07:29.532Z,99.99
2022-12-31T03:08:29.691Z,99.99
2022-12-31T03:09:29.838Z,99.99
2022-12-31T03:10:29.958Z,99.99
2022-12-31T03:11:30.130Z,99.99
2022-12-31T03:12:30.201Z,99.99
2022-12-31T03:13:30.361Z,99.99
2022-12-31T03:14:30.450Z,99.99
2022-12-31T03:15:30.577Z,99.99
2022-12-31T03:16:30.801Z,99.99
2022-12-31T03:17:30.843Z,99.99
2022-12-31T03:18:30.982Z,99.99
2022-12-31T03:19:31.112Z,99.99
2022-12-31T03:20:31.243Z,99.99
2022-12-31T03:21:31.505Z,99.99
2022-12-31T03:22:31.507Z,99.99
2022-12-31T03:23:31.603Z,99.99
2022-12-31T03:24:31.721Z,99.99
2022-12-31T03:25:31.864Z,99.99
2022-12-31T03:26:32.011Z,99.99
2022-12-31T03:27:32.202Z,99.99
2022-12-31T03:28:32.280Z,99.99
2022-12-31T03:29:32.422Z,99.99
2022-12-31T03:30:32.615Z,99.99
2022-12-31T03:31:32.807Z,99.99
2022-12-31T03:32:32.922Z,99.99
2022-12-31T03:33:33.008Z,99.99
2022-12-31T03:34:33.103Z,99.99
2022-12-31T03:35:33.247Z,99.99
2022-12-31T03:36:33.379Z,99.99
2022-12-31T03:37:33.524Z,99.99
2022-12-31T03:38:33.634Z,99.99
2022-12-31T03:39:33.842Z,99.99
2022-12-31T03:40:33.900Z,99.99
2022-12-31T03:41:34.048Z,99.99
2022-12-31T03:42:34.179Z,99.99
2022-12-31T03:43:34.304Z,99.99
2022-12-31T03:44:34.400Z,99.99
2022-12-31T03:45:34.557Z,99.99
2022-12-31T03:46:34.632Z,99.99
2022-12-31T03:47:34.805Z,99.99
2022-12-31T03:48:34.922Z,99.99
2022-12-31T03:49:35.105Z,99.99
2022-12-31T03:50:35.193Z,99.99
2022-12-31T03:51:35.353Z,99.99
2022-12-31T03:52:35.538Z,99.99
2022-12-31T03:53:35.667Z,99.99
2022-12-31T03:54:35.814Z,99.99
2022-12-31T03:55:35.954Z,99.99
2022-12-31T03:56:36.082Z,99.99
2022-12-31T03:57:36.229Z,99.99
2022-12-31T03:58:36.373Z,99.99
2022-12-31T03:59:36.490Z,99.99
2022-12-31T04:00:36.637Z,99.99
2022-12-31T04:01:36.875Z,99.99
2022-12-31T04:02:37.011Z,99.99
2022-12-31T04:03:37.022Z,99.99
2022-12-31T04:04:37.130Z,99.99
2022-12-31T04:05:37.221Z,99.99
2022-12-31T04:06:37.382Z,99.99
2022-12-31T04:07:37.475Z,99.99
2022-12-31T04:08:37.588Z,99.99
2022-12-31T04:09:37.698Z,99.99
2022-12-31T04:10:37.812Z,99.99
2022-12-31T04:11:37.984Z,99.99
2022-12-31T04:12:38.093Z,99.99
2022-12-31T04:13:38.243Z,99.99
2022-12-31T04:14:38.379Z,99.99
2022-12-31T04:15:38.519Z,99.99
2022-12-31T04:16:38.711Z,99.99
2022-12-31T04:17:38.811Z,99.99
2022-12-31T04:18:38.935Z,99.99
2022-12-31T04:19:39.067Z,99.99
2022-12-31T04:20:39.199Z,99.99
2022-12-31T04:21:39.348Z,99.99
2022-12-31T04:22:39.517Z,99.99
2022-12-31T04:23:39.680Z,99.99
2022-12-31T04:24:39.800Z,99.99
2022-12-31T04:25:39.969Z,99.99
2022-12-31T04:26:40.102Z,99.99
2022-12-31T04:27:40.278Z,99.99
2022-12-31T04:28:41.831Z,99.99
2022-12-31T04:29:40.487Z,99.99
2022-12-31T04:30:40.588Z,99.99
2022-12-31T04:31:40.738Z,99.99
2022-12-31T04:32:40.810Z,99.99
2022-12-31T04:33:41.163Z,99.99
2022-12-31T04:34:41.133Z,99.99
2022-12-31T04:35:41.290Z,99.99
2022-12-31T04:36:41.665Z,99.99
2022-12-31T04:37:41.567Z,99.99
2022-12-31T04:38:41.662Z,99.99
2022-12-31T04:39:41.788Z,99.99
2022-12-31T04:40:41.917Z,99.99
2022-12-31T04:41:42.080Z,99.99
2022-12-31T04:42:42.221Z,99.99
2022-12-31T04:43:42.362Z,99.99
2022-12-31T04:44:42.452Z,99.99
2022-12-31T04:45:42.655Z,99.99
2022-12-31T04:46:42.811Z,99.99
2022-12-31T04:47:42.885Z,99.99
2022-12-31T04:48:43.052Z,99.99
2022-12-31T04:49:43.150Z,99.99
2022-12-31T04:50:43.281Z,99.99
2022-12-31T04:51:44.155Z,99.99
2022-12-31T04:52:43.529Z,99.99
2022-12-31T04:53:43.716Z,99.99
2022-12-31T04:54:43.802Z,99.99
2022-12-31T04:55:43.940Z,99.99
2022-12-31T04:56:44.074Z,99.99
2022-12-31T04:57:44.164Z,99.99
2022-12-31T04:58:44.313Z,99.99
2022-12-31T04:59:44.413Z,99.99
2022-12-31T05:00:44.542Z,99.99
2022-12-31T05:01:44.757Z,99.99
2022-12-31T05:02:44.988Z,99.99
2022-12-31T05:03:45.018Z,99.99
2022-12-31T05:04:45.090Z,99.99
2022-12-31T05:05:45.224Z,99.99
2022-12-31T05:06:45.368Z,99.99
2022-12-31T05:07:45.498Z,99.99
2022-12-31T05:08:45.577Z,99.99
2022-12-31T05:09:45.721Z,99.99
2022-12-31T05:10:45.885Z,99.99
2022-12-31T05:11:46.031Z,99.99
2022-12-31T05:12:46.170Z,99.99
2022-12-31T05:13:46.261Z,99.99
2022-12-31T05:14:46.412Z,99.99
2022-12-31T05:15:46.569Z,99.99
2022-12-31T05:16:46.672Z,99.99
2022-12-31T05:17:46.834Z,99.99
2022-12-31T05:18:46.969Z,99.99
2022-12-31T05:19:47.091Z,99.99
2022-12-31T05:20:47.223Z,99.99
2022-12-31T05:21:47.351Z,99.99
2022-12-31T05:22:47.511Z,99.99
2022-12-31T05:23:47.650Z,99.99
2022-12-31T05:24:47.778Z,99.99
2022-12-31T05:25:47.911Z,99.99
2022-12-31T05:26:48.033Z,99.99
2022-12-31T05:27:48.163Z,99.99
2022-12-31T05:28:48.319Z,99.99
2022-12-31T05:29:48.466Z,99.99
2022-12-31T05:30:48.648Z,99.99
2022-12-31T05:31:48.707Z,99.99
2022-12-31T05:32:48.970Z,99.99
2022-12-31T05:33:49.038Z,99.99
2022-12-31T05:34:49.128Z,99.99
2022-12-31T05:35:49.261Z,99.99
2022-12-31T05:36:49.401Z,99.99
2022-12-31T05:37:49.529Z,99.99
2022-12-31T05:38:49.708Z,99.99
2022-12-31T05:39:49.768Z,99.99
2022-12-31T05:40:49.888Z,99.99
2022-12-31T05:41:50.028Z,99.99
2022-12-31T05:42:50.163Z,99.99
2022-12-31T05:43:50.317Z,99.99
2022-12-31T05:44:50.495Z,99.99
2022-12-31T05:45:50.681Z,99.99
2022-12-31T05:46:50.790Z,99.99
2022-12-31T05:47:50.857Z,99.99
2022-12-31T05:48:51.038Z,99.99
2022-12-31T05:49:51.099Z,99.99
2022-12-31T05:50:51.237Z,99.99
2022-12-31T05:51:51.376Z,99.99
2022-12-31T05:52:51.528Z,99.99
2022-12-31T05:53:51.698Z,99.99
2022-12-31T05:54:51.840Z,99.99
2022-12-31T05:55:51.968Z,99.99
2022-12-31T05:56:52.111Z,99.99
2022-12-31T05:57:52.228Z,99.99
2022-12-31T05:58:52.378Z,99.99
2022-12-31T05:59:52.482Z,99.99
2022-12-31T06:00:52.633Z,99.99
2022-12-31T06:01:52.779Z,99.99
2022-12-31T06:02:52.993Z,99.99
2022-12-31T06:03:53.042Z,99.99
2022-12-31T06:04:53.484Z,99.99
2022-12-31T06:05:53.299Z,99.99
2022-12-31T06:06:53.442Z,99.99
2022-12-31T06:07:53.572Z,99.99
2022-12-31T06:08:53.739Z,99.99
2022-12-31T06:09:53.866Z,99.99
2022-12-31T06:10:54.010Z,100.00
2022-12-31T06:11:54.160Z,99.99
2022-12-31T06:12:54.300Z,99.71
2022-12-31T06:13:54.498Z,99.36
2022-12-31T06:14:54.548Z,99.51
2022-12-31T06:15:54.765Z,99.71
2022-12-31T06:16:54.842Z,99.99
2022-12-31T06:17:55.000Z,99.99
2022-12-31T06:18:55.098Z,99.99
2022-12-31T06:19:55.969Z,99.99
2022-12-31T06:20:55.436Z,99.99
2022-12-31T06:21:55.569Z,99.99
2022-12-31T06:22:55.667Z,99.99
2022-12-31T06:23:55.803Z,99.99
2022-12-31T06:24:56.012Z,99.99
2022-12-31T06:25:56.058Z,99.99
2022-12-31T06:26:56.177Z,99.99
2022-12-31T06:27:56.370Z,99.99
2022-12-31T06:28:56.463Z,99.99
2022-12-31T06:29:56.541Z,99.99
2022-12-31T06:30:56.795Z,99.99
2022-12-31T06:31:56.816Z,99.99
2022-12-31T06:32:56.956Z,99.99
2022-12-31T06:33:57.051Z,99.99
2022-12-31T06:34:57.230Z,99.99
2022-12-31T06:35:57.367Z,99.99
2022-12-31T06:36:57.436Z,99.99
2022-12-31T06:37:57.583Z,99.99
2022-12-31T06:38:57.746Z,99.77
2022-12-31T06:39:57.849Z,99.46
2022-12-31T06:40:57.984Z,99.56
2022-12-31T06:41:58.122Z,99.56
2022-12-31T06:43:00.439Z,99.56
2022-12-31T06:43:58.414Z,99.46
2022-12-31T06:44:58.580Z,99.36
2022-12-31T06:45:58.707Z,99.26
2022-12-31T06:46:58.850Z,99.26
2022-12-31T06:47:58.978Z,99.16
2022-12-31T06:48:59.146Z,99.26
2022-12-31T06:49:59.287Z,99.61
2022-12-31T06:50:59.455Z,99.05
2022-12-31T06:51:59.610Z,99.05
2022-12-31T06:52:59.747Z,98.85
2022-12-31T06:53:59.891Z,99.36
2022-12-31T06:55:00.052Z,99.51
2022-12-31T06:56:00.195Z,99.26
2022-12-31T06:57:00.331Z,98.45
2022-12-31T06:58:00.497Z,98.10
2022-12-31T06:59:00.680Z,98.45
2022-12-31T07:00:00.802Z,97.80
2022-12-31T07:01:00.965Z,97.29
2022-12-31T07:02:01.236Z,97.29
2022-12-31T07:03:01.262Z,97.19
2022-12-31T07:04:01.348Z,97.90
2022-12-31T07:05:01.468Z,97.49
2022-12-31T07:06:01.562Z,98.05
2022-12-31T07:07:01.709Z,97.60
2022-12-31T07:08:01.840Z,96.78
2022-12-31T07:09:01.985Z,96.03
2022-12-31T07:10:02.101Z,95.73
2022-12-31T07:11:02.253Z,95.83
2022-12-31T07:12:02.308Z,95.53
2022-12-31T07:13:02.451Z,95.63
2022-12-31T07:14:02.591Z,95.43
2022-12-31T07:15:02.730Z,95.32
2022-12-31T07:16:02.885Z,95.02
2022-12-31T07:17:02.949Z,95.22
2022-12-31T07:18:03.026Z,95.63
2022-12-31T07:19:03.163Z,96.03
2022-12-31T07:20:03.311Z,95.98
2022-12-31T07:21:03.420Z,95.73
2022-12-31T07:22:03.569Z,95.32
2022-12-31T07:23:03.669Z,94.42
2022-12-31T07:24:03.827Z,94.31
2022-12-31T07:25:04.018Z,94.17
2022-12-31T07:26:04.098Z,94.07
2022-12-31T07:27:04.242Z,94.62
2022-12-31T07:28:04.347Z,94.42
2022-12-31T07:29:04.522Z,94.82
2022-12-31T07:30:04.800Z,94.72
2022-12-31T07:31:04.805Z,94.51
2022-12-31T07:32:04.902Z,94.42
2022-12-31T07:33:05.027Z,94.31
2022-12-31T07:34:05.112Z,94.07
2022-12-31T07:35:05.331Z,93.76
2022-12-31T07:36:05.455Z,94.31
2022-12-31T07:37:05.579Z,94.01
2022-12-31T07:38:05.777Z,93.76
2022-12-31T07:39:05.882Z,92.96
2022-12-31T07:40:06.083Z,92.96
2022-12-31T07:41:09.696Z,93.05
2022-12-31T07:42:06.289Z,93.16
2022-12-31T07:43:06.603Z,92.85
2022-12-31T07:44:06.655Z,92.96
2022-12-31T07:45:06.784Z,92.85
2022-12-31T07:46:06.963Z,92.76
2022-12-31T07:47:07.095Z,92.85
2022-12-31T07:48:07.177Z,92.96
2022-12-31T07:49:07.315Z,92.65
2022-12-31T07:50:07.403Z,92.85
2022-12-31T07:51:07.591Z,92.65
2022-12-31T07:52:07.729Z,92.45
2022-12-31T07:53:07.826Z,92.45
2022-12-31T07:54:13.621Z,92.55
2022-12-31T07:55:09.058Z,92.65
2022-12-31T07:56:08.126Z,92.55
2022-12-31T07:57:08.346Z,92.65
2022-12-31T07:58:08.446Z,92.96
2022-12-31T07:59:08.587Z,92.45
2022-12-31T08:00:08.656Z,92.30
2022-12-31T08:01:08.920Z,92.41
2022-12-31T08:02:08.988Z,92.76
2022-12-31T08:03:09.020Z,92.55
2022-12-31T08:04:09.124Z,92.65
2022-12-31T08:05:09.240Z,92.55
2022-12-31T08:06:09.351Z,92.76
2022-12-31T08:07:09.505Z,93.36
2022-12-31T08:08:09.593Z,92.96
2022-12-31T08:09:09.718Z,92.65
2022-12-31T08:10:15.640Z,92.25
2022-12-31T08:11:10.976Z,92.21
2022-12-31T08:12:10.066Z,92.30
2022-12-31T08:13:10.185Z,92.10
2022-12-31T08:14:10.282Z,92.21
2022-12-31T08:15:10.474Z,92.10
2022-12-31T08:16:10.636Z,91.80
2022-12-31T08:17:10.690Z,92.10
2022-12-31T08:18:10.922Z,91.60
2022-12-31T08:19:10.977Z,91.80
2022-12-31T08:20:11.081Z,92.00
2022-12-31T08:21:11.248Z,92.00
2022-12-31T08:22:11.328Z,91.70
2022-12-31T08:23:11.412Z,91.39
2022-12-31T08:24:11.556Z,91.19
2022-12-31T08:25:11.673Z,91.39
2022-12-31T08:26:11.758Z,91.30
2022-12-31T08:27:11.951Z,91.60
2022-12-31T08:28:12.091Z,91.80
2022-12-31T08:29:12.256Z,91.80
2022-12-31T08:30:12.496Z,92.00
2022-12-31T08:31:12.523Z,92.35
2022-12-31T08:32:12.705Z,92.55
2022-12-31T08:33:12.735Z,92.25
2022-12-31T08:34:13.504Z,91.80
2022-12-31T08:35:13.189Z,91.50
2022-12-31T08:36:13.058Z,91.50
2022-12-31T08:37:13.289Z,91.60
2022-12-31T08:38:13.324Z,91.19
2022-12-31T08:39:13.479Z,91.39
2022-12-31T08:40:13.641Z,91.80
2022-12-31T08:41:13.701Z,92.10
2022-12-31T08:42:13.837Z,92.14
2022-12-31T08:43:13.997Z,92.14
2022-12-31T08:44:14.077Z,92.14
2022-12-31T08:45:14.198Z,91.90
2022-12-31T08:46:14.372Z,91.90
2022-12-31T08:47:14.484Z,92.25
2022-12-31T08:48:14.609Z,92.76
2022-12-31T08:49:15.675Z,92.45
2022-12-31T08:50:14.877Z,92.14
2022-12-31T08:51:14.924Z,91.70
2022-12-31T08:52:15.039Z,91.70
2022-12-31T08:53:15.366Z,91.70
2022-12-31T08:54:15.305Z,91.39
2022-12-31T08:55:15.437Z,91.30
2022-12-31T08:56:15.519Z,91.80
2022-12-31T08:57:15.701Z,92.05
2022-12-31T08:58:15.796Z,91.30
2022-12-31T08:59:15.913Z,91.70
2022-12-31T09:00:16.015Z,91.90
2022-12-31T09:01:16.896Z,92.25
2022-12-31T09:02:16.297Z,91.64
2022-12-31T09:03:16.375Z,91.39
2022-12-31T09:04:16.550Z,91.19
2022-12-31T09:05:16.600Z,91.39
2022-12-31T09:06:16.704Z,91.30
2022-12-31T09:07:16.849Z,91.39
2022-12-31T09:08:16.954Z,91.39
2022-12-31T09:09:17.107Z,91.19
2022-12-31T09:10:17.217Z,91.39
2022-12-31T09:11:22.839Z,90.99
2022-12-31T09:12:18.475Z,90.59
2022-12-31T09:13:17.644Z,90.39
2022-12-31T09:14:17.717Z,90.49
2022-12-31T09:15:17.859Z,89.64
2022-12-31T09:16:18.056Z,89.64
2022-12-31T09:17:18.124Z,89.34
2022-12-31T09:18:18.267Z,89.43
2022-12-31T09:19:18.424Z,89.74
2022-12-31T09:20:18.520Z,89.13
2022-12-31T09:21:18.683Z,88.93
2022-12-31T09:22:18.784Z,89.03
2022-12-31T09:23:18.964Z,88.93
2022-12-31T09:24:19.104Z,89.13
2022-12-31T09:25:19.223Z,88.93
2022-12-31T09:26:19.354Z,88.63
2022-12-31T09:27:27.014Z,89.23
2022-12-31T09:28:20.572Z,88.02
2022-12-31T09:29:19.749Z,87.58
2022-12-31T09:30:19.855Z,87.38
2022-12-31T09:31:19.991Z,87.98
2022-12-31T09:32:20.052Z,88.23
2022-12-31T09:33:20.187Z,88.53
2022-12-31T09:34:20.347Z,87.88
2022-12-31T09:35:20.471Z,88.08
2022-12-31T09:36:20.573Z,88.83
2022-12-31T09:37:21.136Z,89.54
2022-12-31T09:38:21.122Z,89.54
2022-12-31T09:39:21.118Z,89.43
2022-12-31T09:40:21.126Z,89.54
2022-12-31T09:41:21.201Z,91.09
2022-12-31T09:42:21.354Z,92.25
2022-12-31T09:43:21.449Z,92.76
2022-12-31T09:44:21.595Z,92.25
2022-12-31T09:45:21.747Z,92.25
2022-12-31T09:46:21.886Z,93.36
2022-12-31T09:47:21.958Z,94.72
2022-12-31T09:48:22.120Z,95.02
2022-12-31T09:49:22.231Z,95.57
2022-12-31T09:50:22.411Z,96.78
2022-12-31T09:51:25.429Z,96.98
2022-12-31T09:52:22.659Z,96.58
2022-12-31T09:53:22.784Z,97.39
2022-12-31T09:54:22.909Z,96.98
2022-12-31T09:55:23.055Z,96.98
2022-12-31T09:56:23.178Z,96.69
2022-12-31T09:57:23.255Z,95.87
2022-12-31T09:58:23.395Z,95.02
2022-12-31T09:59:23.575Z,94.72
2022-12-31T10:00:23.685Z,94.21
2022-12-31T10:01:23.841Z,94.51
2022-12-31T10:02:24.165Z,94.01
2022-12-31T10:03:24.053Z,94.62
2022-12-31T10:04:24.167Z,95.02
2022-12-31T10:05:24.290Z,94.72
2022-12-31T10:06:24.407Z,95.12
2022-12-31T10:07:24.500Z,95.57
2022-12-31T10:08:24.616Z,95.98
2022-12-31T10:09:24.709Z,96.18
2022-12-31T10:10:24.867Z,96.28
2022-12-31T10:11:25.027Z,96.38
2022-12-31T10:12:25.124Z,96.48
2022-12-31T10:13:25.264Z,96.38
2022-12-31T10:14:25.411Z,96.89
2022-12-31T10:15:25.560Z,97.29
2022-12-31T10:16:25.731Z,96.69
2022-12-31T10:17:25.883Z,96.78
2022-12-31T10:18:25.978Z,97.49
2022-12-31T10:19:26.108Z,97.19
2022-12-31T10:20:26.189Z,96.18
2022-12-31T10:21:26.335Z,96.28
2022-12-31T10:22:26.457Z,96.58
2022-12-31T10:23:26.570Z,97.80
2022-12-31T10:24:26.674Z,97.85
2022-12-31T10:25:38.420Z,96.98
2022-12-31T10:26:27.917Z,96.48
2022-12-31T10:27:27.011Z,95.43
2022-12-31T10:28:27.189Z,95.02
2022-12-31T10:29:27.267Z,94.51
2022-12-31T10:30:27.408Z,94.62
2022-12-31T10:31:27.513Z,94.51
2022-12-31T10:32:31.340Z,94.51
2022-12-31T10:33:27.753Z,94.72
2022-12-31T10:34:27.927Z,95.12
2022-12-31T10:35:28.009Z,95.12
2022-12-31T10:36:28.145Z,95.63
2022-12-31T10:37:29.008Z,96.03
2022-12-31T10:38:28.445Z,96.23
2022-12-31T10:39:28.526Z,95.87
2022-12-31T10:40:28.668Z,95.63
2022-12-31T10:41:28.775Z,94.92
2022-12-31T10:42:28.879Z,95.12
2022-12-31T10:43:29.026Z,94.51
2022-12-31T10:44:30.656Z,94.07
2022-12-31T10:45:29.244Z,93.66
2022-12-31T10:46:29.495Z,93.16
2022-12-31T10:47:30.100Z,92.10
2022-12-31T10:48:29.707Z,91.90
2022-12-31T10:49:29.798Z,91.90
2022-12-31T10:50:29.889Z,92.00
2022-12-31T10:51:29.986Z,91.70
2022-12-31T10:52:30.172Z,91.39
2022-12-31T10:53:30.969Z,90.65
2022-12-31T10:54:30.400Z,90.55
2022-12-31T10:55:30.463Z,90.75
2022-12-31T10:56:30.585Z,90.34
2022-12-31T10:57:30.746Z,90.04
2022-12-31T10:58:30.875Z,89.64
2022-12-31T10:59:30.955Z,89.94
2022-12-31T11:00:31.098Z,90.24
2022-12-31T11:01:31.364Z,89.19
2022-12-31T11:02:31.559Z,88.99
2022-12-31T11:03:31.538Z,88.59
2022-12-31T11:04:31.647Z,88.79
2022-12-31T11:05:31.872Z,88.89
2022-12-31T11:06:31.855Z,89.23
2022-12-31T11:07:32.065Z,89.64
2022-12-31T11:08:32.075Z,89.34
2022-12-31T11:09:34.680Z,89.54
2022-12-31T11:10:32.375Z,89.03
2022-12-31T11:11:32.454Z,89.23
2022-12-31T11:12:32.612Z,89.03
2022-12-31T11:13:32.719Z,88.79
2022-12-31T11:14:32.886Z,89.54
2022-12-31T11:15:33.078Z,91.05
2022-12-31T11:16:33.228Z,93.12
2022-12-31T11:17:33.274Z,93.56
2022-12-31T11:18:33.416Z,94.67
2022-12-31T11:19:33.526Z,94.31
2022-12-31T11:20:33.671Z,94.07
2022-12-31T11:21:37.872Z,93.76
2022-12-31T11:22:34.891Z,92.10
2022-12-31T11:23:34.004Z,91.80
2022-12-31T11:24:34.150Z,91.19
2022-12-31T11:25:34.282Z,91.19
2022-12-31T11:26:34.445Z,91.90
2022-12-31T11:27:34.526Z,91.60
2022-12-31T11:28:34.675Z,91.60
2022-12-31T11:29:34.803Z,90.75
2022-12-31T11:30:34.949Z,90.85
2022-12-31T11:31:35.125Z,90.79
2022-12-31T11:32:35.223Z,90.55
2022-12-31T11:33:35.364Z,90.04
2022-12-31T11:34:35.466Z,89.34
2022-12-31T11:35:35.583Z,88.99
2022-12-31T11:36:35.663Z,88.79
2022-12-31T11:37:35.916Z,88.89
2022-12-31T11:38:35.974Z,88.68
2022-12-31T11:39:36.072Z,88.48
2022-12-31T11:40:36.183Z,88.18
2022-12-31T11:41:36.285Z,88.08
2022-12-31T11:42:36.448Z,87.98
2022-12-31T11:43:36.538Z,87.68
2022-12-31T11:44:36.674Z,87.34
2022-12-31T11:45:36.832Z,87.07
2022-12-31T11:46:37.052Z,86.93
2022-12-31T11:47:49.710Z,87.38
2022-12-31T11:48:38.187Z,87.18
2022-12-31T11:49:37.277Z,86.63
2022-12-31T11:50:37.428Z,87.03
2022-12-31T11:51:37.526Z,87.78
2022-12-31T11:52:37.673Z,87.23
2022-12-31T11:53:37.825Z,87.68
2022-12-31T11:54:38.056Z,87.38
2022-12-31T11:55:38.135Z,87.48
2022-12-31T11:56:38.255Z,86.93
2022-12-31T11:57:38.409Z,86.73
2022-12-31T11:58:38.485Z,87.13
2022-12-31T11:59:38.657Z,87.13
2022-12-31T12:00:38.734Z,87.23
2022-12-31T12:01:38.950Z,87.34
2022-12-31T12:02:39.028Z,87.43
2022-12-31T12:03:39.151Z,87.23
2022-12-31T12:04:39.253Z,87.03
2022-12-31T12:05:39.321Z,86.73
2022-12-31T12:06:39.528Z,87.23
2022-12-31T12:07:39.648Z,86.83
2022-12-31T12:09:39.550Z,86.53
2022-12-31T12:10:40.400Z,86.73
2022-12-31T12:11:39.771Z,86.33
2022-12-31T12:12:39.902Z,86.43
2022-12-31T12:13:40.053Z,86.22
2022-12-31T12:14:40.211Z,86.73
2022-12-31T12:15:40.429Z,86.43
2022-12-31T12:16:40.472Z,86.02
2022-12-31T12:17:40.572Z,85.88
2022-12-31T12:18:40.743Z,85.88
2022-12-31T12:19:40.970Z,86.53
2022-12-31T12:20:40.940Z,86.93
2022-12-31T12:21:41.088Z,86.13
2022-12-31T12:22:45.124Z,86.13
2022-12-31T12:23:42.319Z,86.73
2022-12-31T12:24:41.468Z,86.53
2022-12-31T12:25:41.609Z,86.13
2022-12-31T12:26:41.723Z,86.83
2022-12-31T12:27:41.852Z,86.73
2022-12-31T12:28:44.378Z,86.63
2022-12-31T12:29:42.120Z,86.53
2022-12-31T12:30:42.208Z,86.63
2022-12-31T12:31:42.602Z,86.63
2022-12-31T12:32:42.510Z,87.38
2022-12-31T12:33:42.603Z,86.67
2022-12-31T12:34:49.197Z,86.33
2022-12-31T12:35:43.860Z,86.33
2022-12-31T12:36:43.031Z,86.43
2022-12-31T12:37:43.125Z,86.63
2022-12-31T12:38:43.219Z,86.67
2022-12-31T12:39:43.351Z,86.67
2022-12-31T12:40:43.516Z,86.97
2022-12-31T12:41:43.651Z,86.87
2022-12-31T12:42:43.807Z,87.38
2022-12-31T12:43:43.902Z,87.68
2022-12-31T12:44:44.040Z,87.48
2022-12-31T12:45:47.788Z,87.58
2022-12-31T12:46:48.296Z,87.88
2022-12-31T12:47:44.388Z,87.58
2022-12-31T12:48:44.539Z,87.18
2022-12-31T12:49:44.619Z,87.07
2022-12-31T12:50:44.747Z,87.48
2022-12-31T12:51:44.892Z,87.48
2022-12-31T12:52:45.041Z,87.27
2022-12-31T12:53:45.159Z,87.38
2022-12-31T12:54:45.307Z,87.68